x

North Channel East (45154) Wave Buoy

6:00am - Fri 22nd May 2015 All times are CDT. -5 hours from GMT.

  • Sig Wave height 0.7ft
  • Peak Period 2s
  • Wind
    9mph, 11mph gusts
  • Sea Temp 40°f
  • Air Temp 38°f
  • Sea Pressure 1020.5mb
  • North Channel East
  • North Channel East

More Historic Weather Station data

Upgrade to MSW Pro to gain access to the past 30 days of data for over 8000 Wavebouys and Weather Stations around the globe.

Join Pro

Comparision Forecast

View Surf forecast
   
Fri 05/22 6:00am 0.7ft 2s 9 11 mph 1020.5mb 40f 38f
5:00am 0.7ft 2s 11 13 mph 1019.5mb 40f 39f
4:00am 1ft 3s 9
mph
1018.4mb 40f 40f
3:00am 1.3ft 4s 7 9 mph 1017.8mb 41f 41f
2:00am 1.6ft 4s 13 18 mph 1016.9mb 40f 42f
1:00am 2.5ft 3s 16 18 mph 1016.3mb 40f 43f
12:00am 2.5ft 5s 18 22 mph 1015.6mb 40f 44f
Thu 05/21 11:00pm 2.5ft 5s 13 22 mph 1014.3mb 40f 47f
10:00pm 3ft 6s 13 16 mph 1013.1mb 40f 43f
9:00pm 3.5ft 5s 16 18 mph 1012.5mb 40f 43f
8:00pm 4.5ft 5s 20 22 mph 1011.3mb 40f 44f
7:00pm 4.5ft 5s 22 25 mph 1010.3mb 40f 45f
6:00pm 4.5ft 5s 25 29 mph 1009.6mb 40f 45f
5:00pm 3.5ft 4s 25 29 mph 1009.4mb 41f 46f
3:00pm 0.7ft 3s 18 22 mph 1009mb 41f 48f
2:00pm 0.7ft 3s 11 13 mph 1009.4mb 41f 48f
1:00pm 0.7ft 2s 7 9 mph 1009.9mb 41f 47f
12:00pm 0.3ft 3s 4 7 mph 1010.7mb 41f 45f
11:00am 0.3ft 3s 4
mph
1010.9mb 42f 46f
10:00am 0.3ft 2s 2 4 mph 1011.2mb 41f 44f
9:00am 0.3ft 3s 4 7 mph 1012.2mb 41f 43f
8:00am 0.3ft 3s 7
mph
1012.6mb 41f 42f
7:00am 0.3ft 3s 7 9 mph 1013.3mb 41f 41f
6:00am 0.3ft 3s 9
mph
1013.6mb 40f 41f
5:00am 0.7ft 2s 7
mph
1013.9mb 40f 41f
4:00am 0.7ft 3s 9
mph
1014.4mb 39f 42f
3:00am 1ft 3s 7 9 mph 1014.6mb 39f 42f
2:00am 1ft 3s 9 11 mph 1014.8mb 39f 42f
1:00am 1.3ft 3s 9 11 mph 1015mb 39f 41f
12:00am 1.3ft 3s 9 11 mph 1015.3mb 39f 42f
Wed 05/20 11:00pm 1.6ft 3s 11 13 mph 1015.7mb 39f 42f
10:00pm 1.3ft 3s 13 16 mph 1016.1mb 39f 43f
9:00pm 1.3ft 3s 13 18 mph 1016.3mb 39f 44f
8:00pm 2ft 4s 16 18 mph 1015.9mb 39f 46f
7:00pm 2ft 3s 16 20 mph 1016mb 38f 46f
6:00pm 2ft 4s 18 22 mph 1016.4mb 38f 46f
5:00pm 2ft 3s 18 20 mph 1016.8mb 38f 46f
4:00pm 1.6ft 3s 16 18 mph 1017.6mb 38f 46f
3:00pm 1.3ft 3s 16 18 mph 1018.2mb 38f 45f
2:00pm 1.3ft 3s 13 16 mph 1018.8mb 38f 45f
1:00pm 1.3ft 3s 16
mph
1019.3mb 38f 44f
12:00pm 1.6ft 4s 13 18 mph 1020.2mb 38f 42f
11:00am 2ft 4s 16 18 mph 1020.5mb 38f 40f
10:00am 2ft 3s 16 20 mph 1021mb 38f 39f
9:00am 1.6ft 4s 16 18 mph 1021mb 38f 37f
8:00am 1.6ft 4s 13 16 mph 1021.2mb 38f 37f
7:00am 1.6ft 4s 13 16 mph 1021.4mb 38f 38f
6:00am 1.6ft 4s 9 11 mph 1021mb 38f 37f
5:00am 2ft 4s 11 13 mph 1020.6mb 38f 38f
4:00am 2.5ft 5s 13 16 mph 1020.4mb 38f 38f
3:00am 2.5ft 4s 13 18 mph 1020.5mb 38f 38f
2:00am 2.5ft 4s 16 20 mph 1020.6mb 38f 38f
1:00am 2ft 4s 16 18 mph 1020.9mb 38f 38f
12:00am 1.6ft 4s 18 22 mph 1021.2mb 38f 38f
Tue 05/19 11:00pm 2ft 4s 13 18 mph 1021.2mb 38f 38f
10:00pm 2ft 5s 20 25 mph 1020.7mb 38f 38f
9:00pm 2.5ft 5s 11 13 mph 1020.2mb 38f 39f
8:00pm 2.5ft 5s 16 20 mph 1019.1mb 38f 40f
7:00pm 3.5ft 5s 16 18 mph 1018.1mb 38f 41f
5:00pm 5ft 6s 22 27 mph 1016.8mb 38f 39f
4:00pm 6ft 6s 25 31 mph 1016.7mb 38f 38f
3:00pm 5ft 6s 29 36 mph 1017.6mb 38f 39f
2:00pm 4.5ft 5s 27 31 mph 1016.4mb 38f 39f
1:00pm 4.5ft 5s 22 29 mph 1016.2mb 38f 40f
12:00pm 4ft 5s 20 27 mph 1015.9mb 38f 40f
11:00am 3.5ft 5s 20 25 mph 1015.6mb 38f 40f
10:00am 3.5ft 5s 20 25 mph 1015.3mb 38f 39f
9:00am 3.5ft 5s 18 20 mph 1014.6mb 38f 39f
8:00am 2.5ft 5s 20 22 mph 1014.3mb 38f 39f
7:00am 2.5ft 4s 16 20 mph 1014.2mb 38f 40f
6:00am 2.5ft 4s 13 18 mph 1013.5mb 38f 40f
5:00am 3ft 4s 13 16 mph 1013.2mb 38f 41f
4:00am 3.5ft 5s 20 22 mph 1013mb 38f 41f
3:00am 3.5ft 5s 20 25 mph 1012.9mb 38f 41f
2:00am 3ft 4s 22 27 mph 1012.4mb 38f 42f
1:00am 2.5ft 4s 18 20 mph 1012.3mb 38f 41f
12:00am 3ft 4s 18 20 mph 1012.1mb 38f 41f
Mon 05/18 11:00pm 2.5ft 4s 18 22 mph 1011.7mb 38f 42f
10:00pm 2.5ft 4s 20 25 mph 1011.7mb 38f 43f
9:00pm 1ft 2s 18 20 mph 1011.6mb 38f 45f
8:00pm 0.7ft 2s 16 18 mph 1010.5mb 38f 47f
7:00pm 0.3ft 2s 11 13 mph 1009.8mb 38f 47f
6:00pm 0.3ft 2s 4 9 mph 1009.4mb 38f 56f
5:00pm 0.3ft 2s 2 7 mph 1009.6mb 38f 49f
4:00pm 0.3ft 2s 9 11 mph 1010.2mb 38f 51f
3:00pm 0.7ft 2s 4 7 mph 1010.8mb 38f 54f
2:00pm 0.7ft 2s 7 9 mph 1011.6mb 38f 54f
1:00pm 0.7ft 2s 13
mph
1012mb 38f 53f